Terminal Aerodrome Forecast
Issued by NWS Charleston, WV

Current Version | Previous Version | Text Only | Print | Product List | Glossary Off
Versions: 1 2 3 4 5 6 7 8 9 10 11 12 13 14 15 16 17 18 19 20 21 22

254
FTUS41 KRLX 252341
TAFBKW
TAF
KBKW 252341Z 2600/2624 21008KT P6SM SCT050
     FM260600 21007KT P6SM BKN050
     FM261200 24008KT P6SM BKN040
     FM262000 28010G17KT 5SM HZ VCTS BKN045CB=

USA.gov is the U.S. government's official web portal to all federal, state and local government web resources and services.